sensor_id;sensor_type;location;lat;lon;timestamp;P1;durP1;ratioP1;P2;durP2;ratioP2
3379;SDS011;1703;51.964;7.642;2022-12-18T00:00:11;54.40;;;25.40;;
3379;SDS011;1703;51.964;7.642;2022-12-18T00:02:42;43.03;;;21.60;;
3379;SDS011;1703;51.964;7.642;2022-12-18T00:05:09;49.93;;;22.33;;
3379;SDS011;1703;51.964;7.642;2022-12-18T00:07:36;42.63;;;21.67;;
3379;SDS011;1703;51.964;7.642;2022-12-18T00:10:04;40.43;;;19.90;;
3379;SDS011;1703;51.964;7.642;2022-12-18T00:12:31;43.47;;;20.63;;
3379;SDS011;1703;51.964;7.642;2022-12-18T00:14:58;42.70;;;19.00;;
3379;SDS011;1703;51.964;7.642;2022-12-18T00:17:26;47.80;;;19.60;;
3379;SDS011;1703;51.964;7.642;2022-12-18T00:19:53;42.37;;;21.30;;
3379;SDS011;1703;51.964;7.642;2022-12-18T00:22:20;36.20;;;20.10;;
3379;SDS011;1703;51.964;7.642;2022-12-18T00:24:46;42.57;;;20.23;;
3379;SDS011;1703;51.964;7.642;2022-12-18T00:27:13;54.23;;;22.90;;
3379;SDS011;1703;51.964;7.642;2022-12-18T00:29:40;37.13;;;20.63;;
3379;SDS011;1703;51.964;7.642;2022-12-18T00:32:07;39.27;;;21.00;;
3379;SDS011;1703;51.964;7.642;2022-12-18T00:34:35;44.73;;;19.60;;
3379;SDS011;1703;51.964;7.642;2022-12-18T00:37:02;39.33;;;19.77;;
3379;SDS011;1703;51.964;7.642;2022-12-18T00:39:28;36.97;;;17.40;;
3379;SDS011;1703;51.964;7.642;2022-12-18T00:41:55;52.23;;;18.70;;
3379;SDS011;1703;51.964;7.642;2022-12-18T00:44:39;40.90;;;18.50;;
3379;SDS011;1703;51.964;7.642;2022-12-18T00:47:06;45.40;;;20.13;;
3379;SDS011;1703;51.964;7.642;2022-12-18T00:49:34;55.60;;;25.53;;
3379;SDS011;1703;51.964;7.642;2022-12-18T00:52:01;45.57;;;20.37;;
3379;SDS011;1703;51.964;7.642;2022-12-18T00:54:28;47.93;;;20.80;;
3379;SDS011;1703;51.964;7.642;2022-12-18T00:56:55;54.63;;;23.00;;
3379;SDS011;1703;51.964;7.642;2022-12-18T00:59:22;38.53;;;18.33;;
3379;SDS011;1703;51.964;7.642;2022-12-18T01:01:49;43.67;;;21.63;;
3379;SDS011;1703;51.964;7.642;2022-12-18T01:04:16;44.03;;;22.90;;
3379;SDS011;1703;51.964;7.642;2022-12-18T01:06:45;44.60;;;20.30;;
3379;SDS011;1703;51.964;7.642;2022-12-18T01:09:12;45.77;;;20.80;;
3379;SDS011;1703;51.964;7.642;2022-12-18T01:11:39;40.60;;;18.57;;
3379;SDS011;1703;51.964;7.642;2022-12-18T01:14:06;36.93;;;19.07;;
3379;SDS011;1703;51.964;7.642;2022-12-18T01:16:32;30.53;;;16.83;;
3379;SDS011;1703;51.964;7.642;2022-12-18T01:18:59;35.93;;;18.00;;
3379;SDS011;1703;51.964;7.642;2022-12-18T01:21:26;43.10;;;21.33;;
3379;SDS011;1703;51.964;7.642;2022-12-18T01:23:55;43.20;;;18.87;;
3379;SDS011;1703;51.964;7.642;2022-12-18T01:26:23;47.00;;;21.63;;
3379;SDS011;1703;51.964;7.642;2022-12-18T01:28:51;44.40;;;22.33;;
3379;SDS011;1703;51.964;7.642;2022-12-18T01:31:19;46.13;;;19.87;;
3379;SDS011;1703;51.964;7.642;2022-12-18T01:33:48;40.27;;;19.40;;
3379;SDS011;1703;51.964;7.642;2022-12-18T01:36:16;43.13;;;21.20;;
3379;SDS011;1703;51.964;7.642;2022-12-18T01:38:45;46.07;;;19.27;;
3379;SDS011;1703;51.964;7.642;2022-12-18T01:41:13;43.00;;;21.40;;
3379;SDS011;1703;51.964;7.642;2022-12-18T01:43:45;46.67;;;22.17;;
3379;SDS011;1703;51.964;7.642;2022-12-18T01:46:15;37.73;;;20.63;;
3379;SDS011;1703;51.964;7.642;2022-12-18T01:48:43;43.23;;;21.00;;
3379;SDS011;1703;51.964;7.642;2022-12-18T01:51:12;43.70;;;20.60;;
3379;SDS011;1703;51.964;7.642;2022-12-18T01:53:40;42.47;;;23.17;;
3379;SDS011;1703;51.964;7.642;2022-12-18T01:56:08;43.97;;;19.77;;
3379;SDS011;1703;51.964;7.642;2022-12-18T01:58:42;43.53;;;21.10;;
3379;SDS011;1703;51.964;7.642;2022-12-18T02:01:16;54.40;;;20.60;;
3379;SDS011;1703;51.964;7.642;2022-12-18T02:03:43;32.20;;;17.00;;
3379;SDS011;1703;51.964;7.642;2022-12-18T02:06:12;34.13;;;17.63;;
3379;SDS011;1703;51.964;7.642;2022-12-18T02:08:46;41.93;;;20.80;;
3379;SDS011;1703;51.964;7.642;2022-12-18T02:11:24;33.03;;;17.17;;
3379;SDS011;1703;51.964;7.642;2022-12-18T02:14:07;35.63;;;17.07;;
3379;SDS011;1703;51.964;7.642;2022-12-18T02:16:44;41.07;;;19.70;;
3379;SDS011;1703;51.964;7.642;2022-12-18T02:19:21;35.43;;;19.20;;
3379;SDS011;1703;51.964;7.642;2022-12-18T02:22:11;36.43;;;18.17;;
3379;SDS011;1703;51.964;7.642;2022-12-18T02:24:50;41.80;;;19.10;;
3379;SDS011;1703;51.964;7.642;2022-12-18T02:27:27;41.97;;;19.13;;
3379;SDS011;1703;51.964;7.642;2022-12-18T02:29:57;39.70;;;18.53;;
3379;SDS011;1703;51.964;7.642;2022-12-18T02:32:28;40.23;;;19.70;;
3379;SDS011;1703;51.964;7.642;2022-12-18T02:34:57;45.97;;;20.53;;
3379;SDS011;1703;51.964;7.642;2022-12-18T02:37:28;33.73;;;19.87;;
3379;SDS011;1703;51.964;7.642;2022-12-18T02:39:59;39.40;;;18.17;;
3379;SDS011;1703;51.964;7.642;2022-12-18T02:42:31;36.80;;;18.53;;
3379;SDS011;1703;51.964;7.642;2022-12-18T02:45:00;37.77;;;15.73;;
3379;SDS011;1703;51.964;7.642;2022-12-18T02:47:27;44.67;;;19.53;;
3379;SDS011;1703;51.964;7.642;2022-12-18T02:49:58;39.13;;;16.97;;
3379;SDS011;1703;51.964;7.642;2022-12-18T02:52:34;37.63;;;19.67;;
3379;SDS011;1703;51.964;7.642;2022-12-18T02:55:19;31.63;;;15.90;;
3379;SDS011;1703;51.964;7.642;2022-12-18T02:58:02;42.13;;;18.40;;
3379;SDS011;1703;51.964;7.642;2022-12-18T03:00:37;44.00;;;20.97;;
3379;SDS011;1703;51.964;7.642;2022-12-18T03:03:09;33.50;;;16.10;;
3379;SDS011;1703;51.964;7.642;2022-12-18T03:05:41;38.83;;;17.53;;
3379;SDS011;1703;51.964;7.642;2022-12-18T03:08:14;30.60;;;15.53;;
3379;SDS011;1703;51.964;7.642;2022-12-18T03:10:48;42.93;;;16.87;;
3379;SDS011;1703;51.964;7.642;2022-12-18T03:13:19;32.27;;;17.60;;
3379;SDS011;1703;51.964;7.642;2022-12-18T03:15:56;35.57;;;18.60;;
3379;SDS011;1703;51.964;7.642;2022-12-18T03:18:26;27.63;;;15.60;;
3379;SDS011;1703;51.964;7.642;2022-12-18T03:20:58;35.97;;;15.77;;
3379;SDS011;1703;51.964;7.642;2022-12-18T03:23:27;31.43;;;16.97;;
3379;SDS011;1703;51.964;7.642;2022-12-18T03:25:59;31.97;;;15.73;;
3379;SDS011;1703;51.964;7.642;2022-12-18T03:28:31;39.63;;;15.53;;
3379;SDS011;1703;51.964;7.642;2022-12-18T03:31:04;28.23;;;14.90;;
3379;SDS011;1703;51.964;7.642;2022-12-18T03:33:34;30.20;;;16.17;;
3379;SDS011;1703;51.964;7.642;2022-12-18T03:36:06;32.47;;;17.80;;
3379;SDS011;1703;51.964;7.642;2022-12-18T03:38:33;34.80;;;16.10;;
3379;SDS011;1703;51.964;7.642;2022-12-18T03:41:01;27.27;;;14.30;;
3379;SDS011;1703;51.964;7.642;2022-12-18T03:43:44;26.13;;;14.80;;
3379;SDS011;1703;51.964;7.642;2022-12-18T03:46:17;30.93;;;16.33;;
3379;SDS011;1703;51.964;7.642;2022-12-18T03:48:54;34.03;;;15.53;;
3379;SDS011;1703;51.964;7.642;2022-12-18T03:51:26;30.90;;;15.50;;
3379;SDS011;1703;51.964;7.642;2022-12-18T03:53:59;34.03;;;15.07;;
3379;SDS011;1703;51.964;7.642;2022-12-18T03:56:32;26.13;;;16.37;;
3379;SDS011;1703;51.964;7.642;2022-12-18T03:59:06;25.77;;;14.10;;
3379;SDS011;1703;51.964;7.642;2022-12-18T04:01:37;24.93;;;15.03;;
3379;SDS011;1703;51.964;7.642;2022-12-18T04:04:06;30.03;;;14.10;;
3379;SDS011;1703;51.964;7.642;2022-12-18T04:06:38;31.30;;;16.67;;
3379;SDS011;1703;51.964;7.642;2022-12-18T04:09:08;30.87;;;14.43;;
3379;SDS011;1703;51.964;7.642;2022-12-18T04:11:39;27.60;;;15.40;;
3379;SDS011;1703;51.964;7.642;2022-12-18T04:14:08;32.50;;;15.47;;
3379;SDS011;1703;51.964;7.642;2022-12-18T04:16:36;21.80;;;13.17;;
3379;SDS011;1703;51.964;7.642;2022-12-18T04:19:05;25.87;;;15.37;;
3379;SDS011;1703;51.964;7.642;2022-12-18T04:21:37;29.03;;;11.97;;
3379;SDS011;1703;51.964;7.642;2022-12-18T04:24:05;25.27;;;11.80;;
3379;SDS011;1703;51.964;7.642;2022-12-18T04:26:34;24.93;;;13.37;;
3379;SDS011;1703;51.964;7.642;2022-12-18T04:29:28;26.50;;;13.27;;
3379;SDS011;1703;51.964;7.642;2022-12-18T04:31:55;22.53;;;13.40;;
3379;SDS011;1703;51.964;7.642;2022-12-18T04:34:25;41.83;;;15.50;;
3379;SDS011;1703;51.964;7.642;2022-12-18T04:36:53;25.30;;;14.57;;
3379;SDS011;1703;51.964;7.642;2022-12-18T04:39:21;24.97;;;13.90;;
3379;SDS011;1703;51.964;7.642;2022-12-18T04:41:52;27.17;;;14.53;;
3379;SDS011;1703;51.964;7.642;2022-12-18T04:44:18;27.27;;;12.43;;
3379;SDS011;1703;51.964;7.642;2022-12-18T04:46:47;24.80;;;12.37;;
3379;SDS011;1703;51.964;7.642;2022-12-18T04:49:13;25.03;;;14.00;;
3379;SDS011;1703;51.964;7.642;2022-12-18T04:51:40;32.17;;;14.00;;
3379;SDS011;1703;51.964;7.642;2022-12-18T04:54:07;22.97;;;12.30;;
3379;SDS011;1703;51.964;7.642;2022-12-18T04:56:34;29.07;;;13.80;;
3379;SDS011;1703;51.964;7.642;2022-12-18T04:59:00;27.37;;;13.47;;
3379;SDS011;1703;51.964;7.642;2022-12-18T05:01:27;26.13;;;13.40;;
3379;SDS011;1703;51.964;7.642;2022-12-18T05:03:56;32.23;;;14.33;;
3379;SDS011;1703;51.964;7.642;2022-12-18T05:06:22;21.40;;;13.00;;
3379;SDS011;1703;51.964;7.642;2022-12-18T05:08:49;25.80;;;12.77;;
3379;SDS011;1703;51.964;7.642;2022-12-18T05:11:16;19.97;;;11.97;;
3379;SDS011;1703;51.964;7.642;2022-12-18T05:13:43;21.80;;;11.77;;
3379;SDS011;1703;51.964;7.642;2022-12-18T05:16:10;25.60;;;12.47;;
3379;SDS011;1703;51.964;7.642;2022-12-18T05:18:38;24.67;;;11.90;;
3379;SDS011;1703;51.964;7.642;2022-12-18T05:21:06;20.07;;;12.80;;
3379;SDS011;1703;51.964;7.642;2022-12-18T05:23:33;27.13;;;12.20;;
3379;SDS011;1703;51.964;7.642;2022-12-18T05:26:01;21.13;;;10.37;;
3379;SDS011;1703;51.964;7.642;2022-12-18T05:28:30;17.80;;;9.80;;
3379;SDS011;1703;51.964;7.642;2022-12-18T05:30:59;25.23;;;12.10;;
3379;SDS011;1703;51.964;7.642;2022-12-18T05:33:29;24.57;;;12.37;;
3379;SDS011;1703;51.964;7.642;2022-12-18T05:35:57;21.90;;;12.50;;
3379;SDS011;1703;51.964;7.642;2022-12-18T05:38:29;21.43;;;11.27;;
3379;SDS011;1703;51.964;7.642;2022-12-18T05:40:57;26.03;;;12.03;;
3379;SDS011;1703;51.964;7.642;2022-12-18T05:43:24;20.40;;;10.93;;
3379;SDS011;1703;51.964;7.642;2022-12-18T05:45:52;18.93;;;10.13;;
3379;SDS011;1703;51.964;7.642;2022-12-18T05:48:19;15.97;;;9.87;;
3379;SDS011;1703;51.964;7.642;2022-12-18T05:50:46;23.63;;;11.37;;
3379;SDS011;1703;51.964;7.642;2022-12-18T05:53:15;22.73;;;11.40;;
3379;SDS011;1703;51.964;7.642;2022-12-18T05:55:45;19.67;;;11.60;;
3379;SDS011;1703;51.964;7.642;2022-12-18T05:58:13;19.50;;;11.20;;
3379;SDS011;1703;51.964;7.642;2022-12-18T06:00:42;23.70;;;11.00;;
3379;SDS011;1703;51.964;7.642;2022-12-18T06:03:10;17.40;;;9.33;;
3379;SDS011;1703;51.964;7.642;2022-12-18T06:05:39;23.60;;;11.53;;
3379;SDS011;1703;51.964;7.642;2022-12-18T06:08:07;12.40;;;9.30;;
3379;SDS011;1703;51.964;7.642;2022-12-18T06:10:33;30.57;;;11.27;;
3379;SDS011;1703;51.964;7.642;2022-12-18T06:13:02;23.70;;;10.47;;
3379;SDS011;1703;51.964;7.642;2022-12-18T06:15:29;21.90;;;10.27;;
3379;SDS011;1703;51.964;7.642;2022-12-18T06:17:56;27.73;;;14.10;;
3379;SDS011;1703;51.964;7.642;2022-12-18T06:20:23;19.03;;;11.27;;
3379;SDS011;1703;51.964;7.642;2022-12-18T06:22:50;18.23;;;10.97;;
3379;SDS011;1703;51.964;7.642;2022-12-18T06:25:17;22.20;;;11.90;;
3379;SDS011;1703;51.964;7.642;2022-12-18T06:27:44;17.47;;;9.80;;
3379;SDS011;1703;51.964;7.642;2022-12-18T06:30:14;23.20;;;11.47;;
3379;SDS011;1703;51.964;7.642;2022-12-18T06:32:41;16.00;;;10.33;;
3379;SDS011;1703;51.964;7.642;2022-12-18T06:35:08;21.43;;;10.80;;
3379;SDS011;1703;51.964;7.642;2022-12-18T06:37:35;21.73;;;10.77;;
3379;SDS011;1703;51.964;7.642;2022-12-18T06:40:02;20.57;;;11.50;;
3379;SDS011;1703;51.964;7.642;2022-12-18T06:42:30;17.10;;;8.73;;
3379;SDS011;1703;51.964;7.642;2022-12-18T06:44:57;22.47;;;9.77;;
3379;SDS011;1703;51.964;7.642;2022-12-18T06:47:25;16.27;;;9.93;;
3379;SDS011;1703;51.964;7.642;2022-12-18T06:49:51;15.83;;;9.40;;
3379;SDS011;1703;51.964;7.642;2022-12-18T06:52:18;23.83;;;10.73;;
3379;SDS011;1703;51.964;7.642;2022-12-18T06:54:45;11.13;;;8.00;;
3379;SDS011;1703;51.964;7.642;2022-12-18T06:57:12;24.20;;;9.67;;
3379;SDS011;1703;51.964;7.642;2022-12-18T06:59:39;18.23;;;8.20;;
3379;SDS011;1703;51.964;7.642;2022-12-18T07:02:05;22.73;;;10.17;;
3379;SDS011;1703;51.964;7.642;2022-12-18T07:04:34;18.97;;;8.50;;
3379;SDS011;1703;51.964;7.642;2022-12-18T07:07:00;21.17;;;10.00;;
3379;SDS011;1703;51.964;7.642;2022-12-18T07:09:27;17.63;;;9.10;;
3379;SDS011;1703;51.964;7.642;2022-12-18T07:11:54;17.63;;;10.20;;
3379;SDS011;1703;51.964;7.642;2022-12-18T07:14:21;19.27;;;11.07;;
3379;SDS011;1703;51.964;7.642;2022-12-18T07:16:48;15.10;;;9.07;;
3379;SDS011;1703;51.964;7.642;2022-12-18T07:19:14;21.30;;;9.20;;
3379;SDS011;1703;51.964;7.642;2022-12-18T07:21:43;16.00;;;9.23;;
3379;SDS011;1703;51.964;7.642;2022-12-18T07:24:09;13.90;;;8.37;;
3379;SDS011;1703;51.964;7.642;2022-12-18T07:26:36;18.50;;;9.17;;
3379;SDS011;1703;51.964;7.642;2022-12-18T07:29:03;14.07;;;9.17;;
3379;SDS011;1703;51.964;7.642;2022-12-18T07:31:30;16.93;;;8.00;;
3379;SDS011;1703;51.964;7.642;2022-12-18T07:33:57;15.70;;;7.53;;
3379;SDS011;1703;51.964;7.642;2022-12-18T07:36:24;11.53;;;7.20;;
3379;SDS011;1703;51.964;7.642;2022-12-18T07:38:52;17.93;;;9.77;;
3379;SDS011;1703;51.964;7.642;2022-12-18T07:41:19;17.43;;;8.73;;
3379;SDS011;1703;51.964;7.642;2022-12-18T07:43:46;11.43;;;7.87;;
3379;SDS011;1703;51.964;7.642;2022-12-18T07:46:13;16.17;;;9.20;;
3379;SDS011;1703;51.964;7.642;2022-12-18T07:48:41;12.40;;;8.00;;
3379;SDS011;1703;51.964;7.642;2022-12-18T07:51:08;12.87;;;7.40;;
3379;SDS011;1703;51.964;7.642;2022-12-18T07:53:38;16.27;;;8.80;;
3379;SDS011;1703;51.964;7.642;2022-12-18T07:56:07;15.30;;;8.47;;
3379;SDS011;1703;51.964;7.642;2022-12-18T07:58:36;9.90;;;8.00;;
3379;SDS011;1703;51.964;7.642;2022-12-18T08:01:03;14.10;;;7.50;;
3379;SDS011;1703;51.964;7.642;2022-12-18T08:03:31;11.63;;;8.70;;
3379;SDS011;1703;51.964;7.642;2022-12-18T08:05:58;12.00;;;7.73;;
3379;SDS011;1703;51.964;7.642;2022-12-18T08:08:26;17.00;;;7.40;;
3379;SDS011;1703;51.964;7.642;2022-12-18T08:10:53;14.00;;;8.97;;
3379;SDS011;1703;51.964;7.642;2022-12-18T08:13:21;15.67;;;8.07;;
3379;SDS011;1703;51.964;7.642;2022-12-18T08:15:55;21.77;;;8.37;;
3379;SDS011;1703;51.964;7.642;2022-12-18T08:18:22;10.10;;;8.10;;
3379;SDS011;1703;51.964;7.642;2022-12-18T08:20:49;11.87;;;7.47;;
3379;SDS011;1703;51.964;7.642;2022-12-18T08:23:16;12.10;;;7.53;;
3379;SDS011;1703;51.964;7.642;2022-12-18T08:25:43;12.70;;;8.23;;
3379;SDS011;1703;51.964;7.642;2022-12-18T08:28:10;13.07;;;6.50;;
3379;SDS011;1703;51.964;7.642;2022-12-18T08:30:38;10.80;;;6.80;;
3379;SDS011;1703;51.964;7.642;2022-12-18T08:33:05;13.50;;;7.37;;
3379;SDS011;1703;51.964;7.642;2022-12-18T08:35:34;8.83;;;6.30;;
3379;SDS011;1703;51.964;7.642;2022-12-18T08:38:02;12.63;;;7.03;;
3379;SDS011;1703;51.964;7.642;2022-12-18T08:40:29;10.00;;;6.23;;
3379;SDS011;1703;51.964;7.642;2022-12-18T08:42:55;8.87;;;7.40;;
3379;SDS011;1703;51.964;7.642;2022-12-18T08:45:41;7.57;;;6.70;;
3379;SDS011;1703;51.964;7.642;2022-12-18T08:48:08;16.53;;;7.90;;
3379;SDS011;1703;51.964;7.642;2022-12-18T08:50:34;15.50;;;8.13;;
3379;SDS011;1703;51.964;7.642;2022-12-18T08:53:01;12.30;;;7.40;;
3379;SDS011;1703;51.964;7.642;2022-12-18T08:55:28;11.90;;;7.60;;
3379;SDS011;1703;51.964;7.642;2022-12-18T08:57:55;17.47;;;9.60;;
3379;SDS011;1703;51.964;7.642;2022-12-18T09:00:22;12.83;;;8.33;;
3379;SDS011;1703;51.964;7.642;2022-12-18T09:02:50;15.60;;;7.00;;
3379;SDS011;1703;51.964;7.642;2022-12-18T09:05:17;17.10;;;7.07;;
3379;SDS011;1703;51.964;7.642;2022-12-18T09:07:44;10.77;;;6.77;;
3379;SDS011;1703;51.964;7.642;2022-12-18T09:10:18;13.57;;;7.60;;
3379;SDS011;1703;51.964;7.642;2022-12-18T09:12:44;9.50;;;6.40;;
3379;SDS011;1703;51.964;7.642;2022-12-18T09:15:11;19.43;;;8.17;;
3379;SDS011;1703;51.964;7.642;2022-12-18T09:17:38;14.83;;;7.57;;
3379;SDS011;1703;51.964;7.642;2022-12-18T09:20:07;13.27;;;7.43;;
3379;SDS011;1703;51.964;7.642;2022-12-18T09:22:34;11.97;;;7.50;;
3379;SDS011;1703;51.964;7.642;2022-12-18T09:25:01;9.37;;;6.27;;
3379;SDS011;1703;51.964;7.642;2022-12-18T09:27:32;12.80;;;6.00;;
3379;SDS011;1703;51.964;7.642;2022-12-18T09:30:00;10.50;;;7.60;;
3379;SDS011;1703;51.964;7.642;2022-12-18T09:32:27;8.90;;;6.60;;
3379;SDS011;1703;51.964;7.642;2022-12-18T09:34:54;15.30;;;7.07;;
3379;SDS011;1703;51.964;7.642;2022-12-18T09:37:22;11.33;;;5.90;;
3379;SDS011;1703;51.964;7.642;2022-12-18T09:39:49;12.20;;;6.67;;
3379;SDS011;1703;51.964;7.642;2022-12-18T09:42:17;10.80;;;7.00;;
3379;SDS011;1703;51.964;7.642;2022-12-18T09:44:48;9.53;;;5.73;;
3379;SDS011;1703;51.964;7.642;2022-12-18T09:47:17;6.83;;;5.13;;
3379;SDS011;1703;51.964;7.642;2022-12-18T09:49:46;20.87;;;6.63;;
3379;SDS011;1703;51.964;7.642;2022-12-18T09:52:17;11.00;;;7.93;;
3379;SDS011;1703;51.964;7.642;2022-12-18T09:54:50;8.97;;;5.73;;
3379;SDS011;1703;51.964;7.642;2022-12-18T09:57:21;11.23;;;6.40;;
3379;SDS011;1703;51.964;7.642;2022-12-18T09:59:51;12.00;;;6.40;;
3379;SDS011;1703;51.964;7.642;2022-12-18T10:02:23;14.33;;;7.17;;
3379;SDS011;1703;51.964;7.642;2022-12-18T10:04:54;9.83;;;6.37;;
3379;SDS011;1703;51.964;7.642;2022-12-18T10:07:29;12.23;;;6.50;;
3379;SDS011;1703;51.964;7.642;2022-12-18T10:10:10;7.80;;;5.57;;
3379;SDS011;1703;51.964;7.642;2022-12-18T10:12:46;10.00;;;6.33;;
3379;SDS011;1703;51.964;7.642;2022-12-18T10:15:21;15.37;;;7.77;;
3379;SDS011;1703;51.964;7.642;2022-12-18T10:17:54;12.43;;;7.63;;
3379;SDS011;1703;51.964;7.642;2022-12-18T10:20:30;9.87;;;6.53;;
3379;SDS011;1703;51.964;7.642;2022-12-18T10:23:02;7.33;;;6.23;;
3379;SDS011;1703;51.964;7.642;2022-12-18T10:25:37;12.17;;;5.30;;
3379;SDS011;1703;51.964;7.642;2022-12-18T10:28:10;7.70;;;5.10;;
3379;SDS011;1703;51.964;7.642;2022-12-18T10:30:40;12.70;;;6.00;;
3379;SDS011;1703;51.964;7.642;2022-12-18T10:33:09;10.83;;;7.37;;
3379;SDS011;1703;51.964;7.642;2022-12-18T10:35:40;13.03;;;7.00;;
3379;SDS011;1703;51.964;7.642;2022-12-18T10:38:20;11.53;;;7.20;;
3379;SDS011;1703;51.964;7.642;2022-12-18T10:40:50;12.93;;;7.40;;
3379;SDS011;1703;51.964;7.642;2022-12-18T10:43:22;8.47;;;6.00;;
3379;SDS011;1703;51.964;7.642;2022-12-18T10:46:02;11.90;;;7.73;;
3379;SDS011;1703;51.964;7.642;2022-12-18T10:48:50;15.10;;;8.00;;
3379;SDS011;1703;51.964;7.642;2022-12-18T10:51:19;7.67;;;5.73;;
3379;SDS011;1703;51.964;7.642;2022-12-18T10:53:51;10.73;;;6.20;;
3379;SDS011;1703;51.964;7.642;2022-12-18T10:56:22;11.03;;;6.67;;
3379;SDS011;1703;51.964;7.642;2022-12-18T10:58:55;14.07;;;7.03;;
3379;SDS011;1703;51.964;7.642;2022-12-18T11:01:23;14.40;;;8.07;;
3379;SDS011;1703;51.964;7.642;2022-12-18T11:03:58;15.47;;;7.60;;
3379;SDS011;1703;51.964;7.642;2022-12-18T11:06:27;11.47;;;5.67;;
3379;SDS011;1703;51.964;7.642;2022-12-18T11:08:58;14.87;;;7.10;;
3379;SDS011;1703;51.964;7.642;2022-12-18T11:11:28;15.47;;;8.20;;
3379;SDS011;1703;51.964;7.642;2022-12-18T11:13:57;9.80;;;6.63;;
3379;SDS011;1703;51.964;7.642;2022-12-18T11:16:27;10.80;;;7.17;;
3379;SDS011;1703;51.964;7.642;2022-12-18T11:18:59;11.40;;;6.70;;
3379;SDS011;1703;51.964;7.642;2022-12-18T11:21:39;10.97;;;7.13;;
3379;SDS011;1703;51.964;7.642;2022-12-18T11:24:08;13.60;;;6.70;;
3379;SDS011;1703;51.964;7.642;2022-12-18T11:26:48;11.63;;;6.80;;
3379;SDS011;1703;51.964;7.642;2022-12-18T11:29:16;13.27;;;6.90;;
3379;SDS011;1703;51.964;7.642;2022-12-18T11:31:44;12.67;;;7.03;;
3379;SDS011;1703;51.964;7.642;2022-12-18T11:34:11;14.43;;;6.10;;
3379;SDS011;1703;51.964;7.642;2022-12-18T11:36:41;12.33;;;7.17;;
3379;SDS011;1703;51.964;7.642;2022-12-18T11:39:12;10.33;;;6.23;;
3379;SDS011;1703;51.964;7.642;2022-12-18T11:41:47;10.07;;;6.47;;
3379;SDS011;1703;51.964;7.642;2022-12-18T11:44:38;13.17;;;6.23;;
3379;SDS011;1703;51.964;7.642;2022-12-18T11:47:13;10.27;;;6.80;;
3379;SDS011;1703;51.964;7.642;2022-12-18T11:49:49;16.30;;;7.40;;
3379;SDS011;1703;51.964;7.642;2022-12-18T11:52:16;9.57;;;6.30;;
3379;SDS011;1703;51.964;7.642;2022-12-18T11:54:46;11.33;;;7.07;;
3379;SDS011;1703;51.964;7.642;2022-12-18T11:57:19;10.27;;;6.43;;
3379;SDS011;1703;51.964;7.642;2022-12-18T11:59:53;12.53;;;8.07;;
3379;SDS011;1703;51.964;7.642;2022-12-18T12:02:30;9.50;;;6.60;;
3379;SDS011;1703;51.964;7.642;2022-12-18T12:05:16;11.53;;;7.00;;
3379;SDS011;1703;51.964;7.642;2022-12-18T12:07:52;11.80;;;7.00;;
3379;SDS011;1703;51.964;7.642;2022-12-18T12:10:27;8.97;;;6.30;;
3379;SDS011;1703;51.964;7.642;2022-12-18T12:13:15;10.53;;;7.00;;
3379;SDS011;1703;51.964;7.642;2022-12-18T12:15:50;11.67;;;6.60;;
3379;SDS011;1703;51.964;7.642;2022-12-18T12:18:29;12.20;;;8.63;;
3379;SDS011;1703;51.964;7.642;2022-12-18T12:21:09;8.40;;;6.20;;
3379;SDS011;1703;51.964;7.642;2022-12-18T12:23:45;13.67;;;7.57;;
3379;SDS011;1703;51.964;7.642;2022-12-18T12:26:21;9.77;;;6.60;;
3379;SDS011;1703;51.964;7.642;2022-12-18T12:29:01;11.67;;;7.67;;
3379;SDS011;1703;51.964;7.642;2022-12-18T12:31:44;14.00;;;6.67;;
3379;SDS011;1703;51.964;7.642;2022-12-18T12:34:19;16.90;;;8.60;;
3379;SDS011;1703;51.964;7.642;2022-12-18T12:37:01;9.93;;;8.70;;
3379;SDS011;1703;51.964;7.642;2022-12-18T12:39:38;9.70;;;7.13;;
3379;SDS011;1703;51.964;7.642;2022-12-18T12:42:10;13.50;;;7.13;;
3379;SDS011;1703;51.964;7.642;2022-12-18T12:45:00;13.33;;;7.70;;
3379;SDS011;1703;51.964;7.642;2022-12-18T12:47:31;12.03;;;8.30;;
3379;SDS011;1703;51.964;7.642;2022-12-18T12:50:02;21.57;;;10.63;;
3379;SDS011;1703;51.964;7.642;2022-12-18T12:52:39;50.37;;;21.90;;
3379;SDS011;1703;51.964;7.642;2022-12-18T12:55:13;20.13;;;10.33;;
3379;SDS011;1703;51.964;7.642;2022-12-18T12:57:43;13.70;;;7.90;;
3379;SDS011;1703;51.964;7.642;2022-12-18T13:00:16;12.20;;;6.70;;
3379;SDS011;1703;51.964;7.642;2022-12-18T13:02:46;18.37;;;9.40;;
3379;SDS011;1703;51.964;7.642;2022-12-18T13:05:19;9.63;;;7.10;;
3379;SDS011;1703;51.964;7.642;2022-12-18T13:07:51;12.40;;;8.30;;
3379;SDS011;1703;51.964;7.642;2022-12-18T13:10:26;13.47;;;7.10;;
3379;SDS011;1703;51.964;7.642;2022-12-18T13:12:58;13.00;;;7.13;;
3379;SDS011;1703;51.964;7.642;2022-12-18T13:15:30;11.10;;;7.30;;
3379;SDS011;1703;51.964;7.642;2022-12-18T13:18:03;11.97;;;7.07;;
3379;SDS011;1703;51.964;7.642;2022-12-18T13:20:41;9.20;;;6.87;;
3379;SDS011;1703;51.964;7.642;2022-12-18T13:23:23;9.50;;;6.60;;
3379;SDS011;1703;51.964;7.642;2022-12-18T13:25:57;12.20;;;7.23;;
3379;SDS011;1703;51.964;7.642;2022-12-18T13:31:57;9.13;;;6.90;;
3379;SDS011;1703;51.964;7.642;2022-12-18T13:34:29;12.33;;;7.27;;
3379;SDS011;1703;51.964;7.642;2022-12-18T13:36:57;11.87;;;7.00;;
3379;SDS011;1703;51.964;7.642;2022-12-18T13:40:02;10.43;;;6.27;;
3379;SDS011;1703;51.964;7.642;2022-12-18T13:42:51;18.57;;;7.30;;
3379;SDS011;1703;51.964;7.642;2022-12-18T13:45:40;11.53;;;7.13;;
3379;SDS011;1703;51.964;7.642;2022-12-18T13:51:02;14.00;;;7.53;;
3379;SDS011;1703;51.964;7.642;2022-12-18T13:53:33;9.83;;;6.77;;
3379;SDS011;1703;51.964;7.642;2022-12-18T13:56:02;13.17;;;7.60;;
3379;SDS011;1703;51.964;7.642;2022-12-18T13:58:30;14.20;;;6.57;;
3379;SDS011;1703;51.964;7.642;2022-12-18T14:00:57;11.47;;;6.57;;
3379;SDS011;1703;51.964;7.642;2022-12-18T14:03:25;12.57;;;6.50;;
3379;SDS011;1703;51.964;7.642;2022-12-18T14:05:54;11.30;;;7.30;;
3379;SDS011;1703;51.964;7.642;2022-12-18T14:08:25;14.23;;;7.03;;
3379;SDS011;1703;51.964;7.642;2022-12-18T14:10:58;13.10;;;7.47;;
3379;SDS011;1703;51.964;7.642;2022-12-18T14:13:27;11.70;;;8.13;;
3379;SDS011;1703;51.964;7.642;2022-12-18T14:15:56;13.00;;;7.10;;
3379;SDS011;1703;51.964;7.642;2022-12-18T14:18:25;19.67;;;8.30;;
3379;SDS011;1703;51.964;7.642;2022-12-18T14:20:56;13.53;;;7.53;;
3379;SDS011;1703;51.964;7.642;2022-12-18T14:23:29;8.57;;;5.40;;
3379;SDS011;1703;51.964;7.642;2022-12-18T14:25:57;12.43;;;6.93;;
3379;SDS011;1703;51.964;7.642;2022-12-18T14:28:25;9.90;;;6.20;;
3379;SDS011;1703;51.964;7.642;2022-12-18T14:30:52;9.07;;;6.17;;
3379;SDS011;1703;51.964;7.642;2022-12-18T14:33:20;13.07;;;7.60;;
3379;SDS011;1703;51.964;7.642;2022-12-18T14:35:52;13.17;;;7.60;;
3379;SDS011;1703;51.964;7.642;2022-12-18T14:38:23;19.70;;;7.80;;
3379;SDS011;1703;51.964;7.642;2022-12-18T14:40:54;12.90;;;6.80;;
3379;SDS011;1703;51.964;7.642;2022-12-18T14:43:22;12.83;;;8.10;;
3379;SDS011;1703;51.964;7.642;2022-12-18T14:45:49;10.30;;;7.07;;
3379;SDS011;1703;51.964;7.642;2022-12-18T14:48:18;13.43;;;7.60;;
3379;SDS011;1703;51.964;7.642;2022-12-18T14:50:53;23.33;;;7.20;;
3379;SDS011;1703;51.964;7.642;2022-12-18T14:53:23;11.50;;;6.37;;
3379;SDS011;1703;51.964;7.642;2022-12-18T14:55:59;10.67;;;6.90;;
3379;SDS011;1703;51.964;7.642;2022-12-18T14:58:27;12.00;;;6.40;;
3379;SDS011;1703;51.964;7.642;2022-12-18T15:00:54;9.53;;;6.40;;
3379;SDS011;1703;51.964;7.642;2022-12-18T15:03:21;24.07;;;14.47;;
3379;SDS011;1703;51.964;7.642;2022-12-18T15:05:48;15.23;;;9.03;;
3379;SDS011;1703;51.964;7.642;2022-12-18T15:08:28;13.83;;;6.83;;
3379;SDS011;1703;51.964;7.642;2022-12-18T15:10:58;9.47;;;6.63;;
3379;SDS011;1703;51.964;7.642;2022-12-18T15:13:25;11.23;;;7.67;;
3379;SDS011;1703;51.964;7.642;2022-12-18T15:15:52;8.47;;;6.53;;
3379;SDS011;1703;51.964;7.642;2022-12-18T15:18:21;9.40;;;6.20;;
3379;SDS011;1703;51.964;7.642;2022-12-18T15:20:54;11.70;;;6.97;;